sensor_id;sensor_type;location;lat;lon;timestamp;P1;durP1;ratioP1;P2;durP2;ratioP2
21281;SDS011;10800;53.096;18.328;2022-07-24T00:01:17;10.17;;;2.60;;
21281;SDS011;10800;53.096;18.328;2022-07-24T00:06:24;4.10;;;2.90;;
21281;SDS011;10800;53.096;18.328;2022-07-24T00:11:29;6.93;;;3.77;;
21281;SDS011;10800;53.096;18.328;2022-07-24T00:16:35;5.30;;;3.50;;
21281;SDS011;10800;53.096;18.328;2022-07-24T00:21:41;3.33;;;3.03;;
21281;SDS011;10800;53.096;18.328;2022-07-24T00:26:46;6.83;;;3.23;;
21281;SDS011;10800;53.096;18.328;2022-07-24T00:31:53;4.13;;;3.10;;
21281;SDS011;10800;53.096;18.328;2022-07-24T00:36:59;7.50;;;3.03;;
21281;SDS011;10800;53.096;18.328;2022-07-24T00:42:04;5.50;;;3.07;;
21281;SDS011;10800;53.096;18.328;2022-07-24T00:47:10;7.10;;;3.10;;
21281;SDS011;10800;53.096;18.328;2022-07-24T00:52:16;6.90;;;3.50;;
21281;SDS011;10800;53.096;18.328;2022-07-24T00:57:21;4.33;;;3.27;;
21281;SDS011;10800;53.096;18.328;2022-07-24T01:02:27;7.23;;;3.60;;
21281;SDS011;10800;53.096;18.328;2022-07-24T01:07:32;5.17;;;3.40;;
21281;SDS011;10800;53.096;18.328;2022-07-24T01:12:38;8.50;;;3.90;;
21281;SDS011;10800;53.096;18.328;2022-07-24T01:17:45;7.30;;;3.63;;
21281;SDS011;10800;53.096;18.328;2022-07-24T01:22:50;7.00;;;3.73;;
21281;SDS011;10800;53.096;18.328;2022-07-24T01:27:55;9.57;;;3.37;;
21281;SDS011;10800;53.096;18.328;2022-07-24T01:33:01;5.60;;;2.90;;
21281;SDS011;10800;53.096;18.328;2022-07-24T01:38:07;4.17;;;3.00;;
21281;SDS011;10800;53.096;18.328;2022-07-24T01:43:13;7.33;;;3.37;;
21281;SDS011;10800;53.096;18.328;2022-07-24T01:48:18;3.97;;;2.80;;
21281;SDS011;10800;53.096;18.328;2022-07-24T01:53:24;4.07;;;2.90;;
21281;SDS011;10800;53.096;18.328;2022-07-24T01:58:30;6.53;;;2.67;;
21281;SDS011;10800;53.096;18.328;2022-07-24T02:03:37;4.43;;;2.70;;
21281;SDS011;10800;53.096;18.328;2022-07-24T02:08:42;9.17;;;2.97;;
21281;SDS011;10800;53.096;18.328;2022-07-24T02:13:48;2.33;;;2.13;;
21281;SDS011;10800;53.096;18.328;2022-07-24T02:18:53;3.60;;;2.50;;
21281;SDS011;10800;53.096;18.328;2022-07-24T02:23:59;4.33;;;2.83;;
21281;SDS011;10800;53.096;18.328;2022-07-24T02:29:04;4.60;;;3.17;;
21281;SDS011;10800;53.096;18.328;2022-07-24T02:34:11;7.57;;;2.93;;
21281;SDS011;10800;53.096;18.328;2022-07-24T02:39:17;5.30;;;3.17;;
21281;SDS011;10800;53.096;18.328;2022-07-24T02:44:22;6.17;;;2.80;;
21281;SDS011;10800;53.096;18.328;2022-07-24T02:49:27;4.37;;;3.10;;
21281;SDS011;10800;53.096;18.328;2022-07-24T02:54:33;5.30;;;3.30;;
21281;SDS011;10800;53.096;18.328;2022-07-24T02:59:38;3.53;;;2.67;;
21281;SDS011;10800;53.096;18.328;2022-07-24T03:04:44;3.77;;;2.60;;
21281;SDS011;10800;53.096;18.328;2022-07-24T03:09:50;3.10;;;2.80;;
21281;SDS011;10800;53.096;18.328;2022-07-24T03:14:55;5.63;;;3.17;;
21281;SDS011;10800;53.096;18.328;2022-07-24T03:20:02;3.83;;;2.90;;
21281;SDS011;10800;53.096;18.328;2022-07-24T03:25:08;9.97;;;3.37;;
21281;SDS011;10800;53.096;18.328;2022-07-24T03:30:14;3.83;;;2.93;;
21281;SDS011;10800;53.096;18.328;2022-07-24T03:35:21;5.80;;;3.30;;
21281;SDS011;10800;53.096;18.328;2022-07-24T03:40:26;3.67;;;3.17;;
21281;SDS011;10800;53.096;18.328;2022-07-24T03:45:32;5.70;;;3.50;;
21281;SDS011;10800;53.096;18.328;2022-07-24T03:50:37;4.57;;;2.87;;
21281;SDS011;10800;53.096;18.328;2022-07-24T03:55:43;9.53;;;3.20;;
21281;SDS011;10800;53.096;18.328;2022-07-24T04:00:48;5.77;;;3.20;;
21281;SDS011;10800;53.096;18.328;2022-07-24T04:05:54;6.23;;;2.50;;
21281;SDS011;10800;53.096;18.328;2022-07-24T04:10:59;4.63;;;3.20;;
21281;SDS011;10800;53.096;18.328;2022-07-24T04:16:05;8.07;;;2.70;;
21281;SDS011;10800;53.096;18.328;2022-07-24T04:21:10;4.33;;;2.40;;
21281;SDS011;10800;53.096;18.328;2022-07-24T04:26:16;4.77;;;2.50;;
21281;SDS011;10800;53.096;18.328;2022-07-24T04:31:22;6.40;;;2.53;;
21281;SDS011;10800;53.096;18.328;2022-07-24T04:36:31;7.70;;;2.90;;
21281;SDS011;10800;53.096;18.328;2022-07-24T04:41:37;3.20;;;2.30;;
21281;SDS011;10800;53.096;18.328;2022-07-24T04:46:42;4.03;;;2.27;;
21281;SDS011;10800;53.096;18.328;2022-07-24T04:51:48;4.57;;;2.10;;
21281;SDS011;10800;53.096;18.328;2022-07-24T04:56:55;10.13;;;2.80;;
21281;SDS011;10800;53.096;18.328;2022-07-24T05:02:01;5.57;;;2.30;;
21281;SDS011;10800;53.096;18.328;2022-07-24T05:07:06;8.10;;;2.07;;
21281;SDS011;10800;53.096;18.328;2022-07-24T05:12:11;7.13;;;2.30;;
21281;SDS011;10800;53.096;18.328;2022-07-24T05:17:17;6.57;;;2.40;;
21281;SDS011;10800;53.096;18.328;2022-07-24T05:27:42;5.77;;;2.43;;
21281;SDS011;10800;53.096;18.328;2022-07-24T05:32:47;3.63;;;2.13;;
21281;SDS011;10800;53.096;18.328;2022-07-24T05:37:53;6.13;;;2.70;;
21281;SDS011;10800;53.096;18.328;2022-07-24T05:43:11;3.73;;;2.00;;
21281;SDS011;10800;53.096;18.328;2022-07-24T05:48:16;4.50;;;2.07;;
21281;SDS011;10800;53.096;18.328;2022-07-24T05:53:22;4.90;;;1.90;;
21281;SDS011;10800;53.096;18.328;2022-07-24T05:58:28;2.43;;;1.80;;
21281;SDS011;10800;53.096;18.328;2022-07-24T06:03:33;4.17;;;1.60;;
21281;SDS011;10800;53.096;18.328;2022-07-24T06:08:40;4.33;;;2.10;;
21281;SDS011;10800;53.096;18.328;2022-07-24T06:13:47;6.87;;;1.93;;
21281;SDS011;10800;53.096;18.328;2022-07-24T06:18:52;4.53;;;1.60;;
21281;SDS011;10800;53.096;18.328;2022-07-24T06:23:58;6.77;;;1.60;;
21281;SDS011;10800;53.096;18.328;2022-07-24T06:29:03;5.67;;;1.30;;
21281;SDS011;10800;53.096;18.328;2022-07-24T06:34:10;3.07;;;1.77;;
21281;SDS011;10800;53.096;18.328;2022-07-24T06:39:16;4.07;;;1.60;;
21281;SDS011;10800;53.096;18.328;2022-07-24T06:44:22;3.43;;;1.30;;
21281;SDS011;10800;53.096;18.328;2022-07-24T06:49:28;5.33;;;1.60;;
21281;SDS011;10800;53.096;18.328;2022-07-24T06:54:33;2.50;;;1.20;;
21281;SDS011;10800;53.096;18.328;2022-07-24T06:59:39;2.70;;;1.30;;
21281;SDS011;10800;53.096;18.328;2022-07-24T07:04:45;4.37;;;1.80;;
21281;SDS011;10800;53.096;18.328;2022-07-24T07:09:52;2.80;;;1.10;;
21281;SDS011;10800;53.096;18.328;2022-07-24T07:14:57;1.50;;;1.00;;
21281;SDS011;10800;53.096;18.328;2022-07-24T07:20:03;1.67;;;1.07;;
21281;SDS011;10800;53.096;18.328;2022-07-24T07:25:09;4.73;;;1.37;;
21281;SDS011;10800;53.096;18.328;2022-07-24T07:30:15;1.33;;;1.03;;
21281;SDS011;10800;53.096;18.328;2022-07-24T07:35:20;4.20;;;1.40;;
21281;SDS011;10800;53.096;18.328;2022-07-24T07:40:28;1.43;;;1.20;;
21281;SDS011;10800;53.096;18.328;2022-07-24T07:45:33;6.33;;;1.60;;
21281;SDS011;10800;53.096;18.328;2022-07-24T07:50:39;2.10;;;1.30;;
21281;SDS011;10800;53.096;18.328;2022-07-24T07:55:44;2.80;;;1.20;;
21281;SDS011;10800;53.096;18.328;2022-07-24T08:00:51;1.07;;;1.03;;
21281;SDS011;10800;53.096;18.328;2022-07-24T08:05:57;2.73;;;1.50;;
21281;SDS011;10800;53.096;18.328;2022-07-24T08:11:05;4.70;;;1.40;;
21281;SDS011;10800;53.096;18.328;2022-07-24T08:16:11;3.80;;;1.27;;
21281;SDS011;10800;53.096;18.328;2022-07-24T08:21:16;5.53;;;1.30;;
21281;SDS011;10800;53.096;18.328;2022-07-24T08:26:22;1.93;;;1.30;;
21281;SDS011;10800;53.096;18.328;2022-07-24T08:31:30;14.03;;;1.83;;
21281;SDS011;10800;53.096;18.328;2022-07-24T08:36:35;3.90;;;1.33;;
21281;SDS011;10800;53.096;18.328;2022-07-24T08:41:42;3.63;;;1.40;;
21281;SDS011;10800;53.096;18.328;2022-07-24T08:46:50;1.30;;;0.90;;
21281;SDS011;10800;53.096;18.328;2022-07-24T08:51:59;3.03;;;1.30;;
21281;SDS011;10800;53.096;18.328;2022-07-24T08:57:06;1.62;;;1.40;;
21281;SDS011;10800;53.096;18.328;2022-07-24T09:02:12;3.90;;;1.50;;
21281;SDS011;10800;53.096;18.328;2022-07-24T09:07:19;4.80;;;1.33;;
21281;SDS011;10800;53.096;18.328;2022-07-24T09:12:29;1.27;;;1.17;;
21281;SDS011;10800;53.096;18.328;2022-07-24T09:17:46;1.77;;;1.25;;
21281;SDS011;10800;53.096;18.328;2022-07-24T09:23:04;3.90;;;1.20;;
21281;SDS011;10800;53.096;18.328;2022-07-24T09:28:11;1.40;;;0.90;;
21281;SDS011;10800;53.096;18.328;2022-07-24T09:33:18;2.57;;;1.27;;
21281;SDS011;10800;53.096;18.328;2022-07-24T09:38:26;1.92;;;1.30;;
21281;SDS011;10800;53.096;18.328;2022-07-24T09:43:32;1.12;;;1.05;;
21281;SDS011;10800;53.096;18.328;2022-07-24T09:48:40;1.98;;;1.37;;
21281;SDS011;10800;53.096;18.328;2022-07-24T09:53:52;5.12;;;1.87;;
21281;SDS011;10800;53.096;18.328;2022-07-24T09:59:01;1.57;;;1.30;;
21281;SDS011;10800;53.096;18.328;2022-07-24T10:04:09;3.65;;;2.00;;
21281;SDS011;10800;53.096;18.328;2022-07-24T10:09:17;4.07;;;3.20;;
21281;SDS011;10800;53.096;18.328;2022-07-24T10:14:25;1.42;;;1.22;;
21281;SDS011;10800;53.096;18.328;2022-07-24T10:19:36;1.80;;;1.20;;
21281;SDS011;10800;53.096;18.328;2022-07-24T10:24:58;3.40;;;1.45;;
21281;SDS011;10800;53.096;18.328;2022-07-24T10:30:06;5.12;;;1.82;;
21281;SDS011;10800;53.096;18.328;2022-07-24T10:35:15;1.77;;;1.42;;
21281;SDS011;10800;53.096;18.328;2022-07-24T10:51:09;3.15;;;1.50;;
21281;SDS011;10800;53.096;18.328;2022-07-24T10:56:22;3.95;;;1.70;;
21281;SDS011;10800;53.096;18.328;2022-07-24T11:22:46;1.32;;;1.10;;
21281;SDS011;10800;53.096;18.328;2022-07-24T11:33:20;1.70;;;1.00;;
21281;SDS011;10800;53.096;18.328;2022-07-24T11:38:28;3.12;;;1.30;;
21281;SDS011;10800;53.096;18.328;2022-07-24T11:43:34;1.70;;;0.95;;
21281;SDS011;10800;53.096;18.328;2022-07-24T11:48:39;1.75;;;1.10;;
21281;SDS011;10800;53.096;18.328;2022-07-24T11:53:46;1.30;;;1.20;;
21281;SDS011;10800;53.096;18.328;2022-07-24T11:58:52;2.98;;;1.10;;
21281;SDS011;10800;53.096;18.328;2022-07-24T12:03:58;1.55;;;1.25;;
21281;SDS011;10800;53.096;18.328;2022-07-24T12:09:05;2.02;;;1.07;;
21281;SDS011;10800;53.096;18.328;2022-07-24T12:14:17;2.45;;;1.55;;
21281;SDS011;10800;53.096;18.328;2022-07-24T12:19:23;2.72;;;1.22;;
21281;SDS011;10800;53.096;18.328;2022-07-24T12:24:30;6.72;;;3.50;;
21281;SDS011;10800;53.096;18.328;2022-07-24T12:29:42;17.50;;;14.93;;
21281;SDS011;10800;53.096;18.328;2022-07-24T12:34:48;6.28;;;5.45;;
21281;SDS011;10800;53.096;18.328;2022-07-24T12:39:55;17.42;;;8.03;;
21281;SDS011;10800;53.096;18.328;2022-07-24T12:45:07;13.38;;;8.75;;
21281;SDS011;10800;53.096;18.328;2022-07-24T12:50:13;2.45;;;1.95;;
21281;SDS011;10800;53.096;18.328;2022-07-24T12:55:21;7.85;;;5.12;;
21281;SDS011;10800;53.096;18.328;2022-07-24T13:00:26;5.05;;;2.30;;
21281;SDS011;10800;53.096;18.328;2022-07-24T13:05:36;3.25;;;1.65;;
21281;SDS011;10800;53.096;18.328;2022-07-24T13:10:45;1.77;;;1.60;;
21281;SDS011;10800;53.096;18.328;2022-07-24T13:15:51;10.38;;;4.85;;
21281;SDS011;10800;53.096;18.328;2022-07-24T13:20:56;3.37;;;1.92;;
21281;SDS011;10800;53.096;18.328;2022-07-24T13:26:02;30.15;;;12.53;;
21281;SDS011;10800;53.096;18.328;2022-07-24T13:31:07;11.50;;;5.42;;
21281;SDS011;10800;53.096;18.328;2022-07-24T13:36:14;2.65;;;2.37;;
21281;SDS011;10800;53.096;18.328;2022-07-24T13:41:22;2.90;;;1.47;;
21281;SDS011;10800;53.096;18.328;2022-07-24T13:46:28;2.47;;;1.55;;
21281;SDS011;10800;53.096;18.328;2022-07-24T13:51:35;1.47;;;1.25;;
21281;SDS011;10800;53.096;18.328;2022-07-24T13:56:41;2.20;;;1.52;;
21281;SDS011;10800;53.096;18.328;2022-07-24T14:01:48;1.65;;;1.25;;
21281;SDS011;10800;53.096;18.328;2022-07-24T14:06:54;1.20;;;1.10;;
21281;SDS011;10800;53.096;18.328;2022-07-24T14:11:59;1.70;;;1.52;;
21281;SDS011;10800;53.096;18.328;2022-07-24T14:17:05;1.45;;;1.12;;
21281;SDS011;10800;53.096;18.328;2022-07-24T14:22:10;2.30;;;1.12;;
21281;SDS011;10800;53.096;18.328;2022-07-24T14:27:15;2.45;;;1.45;;
21281;SDS011;10800;53.096;18.328;2022-07-24T14:32:21;2.62;;;1.50;;
21281;SDS011;10800;53.096;18.328;2022-07-24T14:37:26;2.80;;;1.35;;
21281;SDS011;10800;53.096;18.328;2022-07-24T14:47:58;1.77;;;1.20;;
21281;SDS011;10800;53.096;18.328;2022-07-24T14:53:03;2.25;;;1.50;;
21281;SDS011;10800;53.096;18.328;2022-07-24T14:58:09;1.37;;;1.27;;
21281;SDS011;10800;53.096;18.328;2022-07-24T15:03:14;1.85;;;1.27;;
21281;SDS011;10800;53.096;18.328;2022-07-24T15:08:20;3.47;;;1.30;;
21281;SDS011;10800;53.096;18.328;2022-07-24T15:13:25;1.55;;;1.37;;
21281;SDS011;10800;53.096;18.328;2022-07-24T15:18:32;2.45;;;1.22;;
21281;SDS011;10800;53.096;18.328;2022-07-24T15:23:38;2.12;;;1.32;;
21281;SDS011;10800;53.096;18.328;2022-07-24T15:28:43;2.83;;;1.20;;
21281;SDS011;10800;53.096;18.328;2022-07-24T15:33:49;2.42;;;1.50;;
21281;SDS011;10800;53.096;18.328;2022-07-24T15:38:56;3.12;;;1.40;;
21281;SDS011;10800;53.096;18.328;2022-07-24T15:44:02;3.85;;;1.95;;
21281;SDS011;10800;53.096;18.328;2022-07-24T15:49:09;2.85;;;1.47;;
21281;SDS011;10800;53.096;18.328;2022-07-24T15:54:14;2.02;;;1.42;;
21281;SDS011;10800;53.096;18.328;2022-07-24T15:59:20;4.42;;;1.67;;
21281;SDS011;10800;53.096;18.328;2022-07-24T16:04:25;2.55;;;1.10;;
21281;SDS011;10800;53.096;18.328;2022-07-24T16:09:31;1.57;;;1.20;;
21281;SDS011;10800;53.096;18.328;2022-07-24T16:14:36;2.80;;;1.27;;
21281;SDS011;10800;53.096;18.328;2022-07-24T16:19:41;2.08;;;1.15;;
21281;SDS011;10800;53.096;18.328;2022-07-24T16:24:47;1.25;;;1.05;;
21281;SDS011;10800;53.096;18.328;2022-07-24T16:29:53;2.12;;;1.40;;
21281;SDS011;10800;53.096;18.328;2022-07-24T16:34:59;2.33;;;1.50;;
21281;SDS011;10800;53.096;18.328;2022-07-24T16:40:04;1.52;;;1.35;;
21281;SDS011;10800;53.096;18.328;2022-07-24T16:45:13;2.92;;;1.47;;
21281;SDS011;10800;53.096;18.328;2022-07-24T16:50:20;2.62;;;1.40;;
21281;SDS011;10800;53.096;18.328;2022-07-24T16:55:26;3.45;;;1.40;;
21281;SDS011;10800;53.096;18.328;2022-07-24T17:00:32;2.15;;;1.32;;
21281;SDS011;10800;53.096;18.328;2022-07-24T17:05:37;1.62;;;1.10;;
21281;SDS011;10800;53.096;18.328;2022-07-24T17:10:43;1.37;;;1.07;;
21281;SDS011;10800;53.096;18.328;2022-07-24T17:15:49;1.77;;;1.17;;
21281;SDS011;10800;53.096;18.328;2022-07-24T17:20:54;3.05;;;1.30;;
21281;SDS011;10800;53.096;18.328;2022-07-24T17:26:00;1.40;;;1.30;;
21281;SDS011;10800;53.096;18.328;2022-07-24T17:31:05;2.95;;;1.20;;
21281;SDS011;10800;53.096;18.328;2022-07-24T17:36:13;1.50;;;1.15;;
21281;SDS011;10800;53.096;18.328;2022-07-24T17:41:19;7.10;;;1.85;;
21281;SDS011;10800;53.096;18.328;2022-07-24T17:46:24;2.37;;;1.50;;
21281;SDS011;10800;53.096;18.328;2022-07-24T17:51:30;2.72;;;1.70;;
21281;SDS011;10800;53.096;18.328;2022-07-24T17:56:35;1.87;;;1.60;;
21281;SDS011;10800;53.096;18.328;2022-07-24T18:01:41;2.20;;;1.50;;
21281;SDS011;10800;53.096;18.328;2022-07-24T18:06:47;2.20;;;1.35;;
21281;SDS011;10800;53.096;18.328;2022-07-24T18:11:53;3.03;;;2.43;;
21281;SDS011;10800;53.096;18.328;2022-07-24T18:16:59;5.37;;;2.72;;
21281;SDS011;10800;53.096;18.328;2022-07-24T18:22:05;3.53;;;2.47;;
21281;SDS011;10800;53.096;18.328;2022-07-24T18:27:11;5.62;;;3.10;;
21281;SDS011;10800;53.096;18.328;2022-07-24T18:32:17;4.50;;;2.87;;
21281;SDS011;10800;53.096;18.328;2022-07-24T18:37:24;5.43;;;3.53;;
21281;SDS011;10800;53.096;18.328;2022-07-24T18:42:30;9.70;;;3.23;;
21281;SDS011;10800;53.096;18.328;2022-07-24T18:47:35;4.37;;;3.10;;
21281;SDS011;10800;53.096;18.328;2022-07-24T18:52:41;7.70;;;3.90;;
21281;SDS011;10800;53.096;18.328;2022-07-24T18:57:47;11.87;;;3.70;;
21281;SDS011;10800;53.096;18.328;2022-07-24T19:02:52;308.07;;;38.33;;
21281;SDS011;10800;53.096;18.328;2022-07-24T19:07:58;12.43;;;7.03;;
21281;SDS011;10800;53.096;18.328;2022-07-24T19:13:05;10.77;;;7.50;;
21281;SDS011;10800;53.096;18.328;2022-07-24T19:18:10;11.60;;;8.03;;
21281;SDS011;10800;53.096;18.328;2022-07-24T19:23:16;52.73;;;11.47;;
21281;SDS011;10800;53.096;18.328;2022-07-24T19:28:21;11.27;;;7.17;;
21281;SDS011;10800;53.096;18.328;2022-07-24T19:33:27;10.33;;;6.40;;
21281;SDS011;10800;53.096;18.328;2022-07-24T19:38:32;8.60;;;6.87;;
21281;SDS011;10800;53.096;18.328;2022-07-24T19:43:38;10.13;;;5.83;;
21281;SDS011;10800;53.096;18.328;2022-07-24T19:48:44;11.17;;;5.97;;
21281;SDS011;10800;53.096;18.328;2022-07-24T19:53:49;12.43;;;7.10;;
21281;SDS011;10800;53.096;18.328;2022-07-24T19:58:55;14.87;;;9.70;;
21281;SDS011;10800;53.096;18.328;2022-07-24T20:04:00;16.60;;;8.80;;
21281;SDS011;10800;53.096;18.328;2022-07-24T20:09:07;12.07;;;7.53;;
21281;SDS011;10800;53.096;18.328;2022-07-24T20:14:12;13.03;;;8.13;;
21281;SDS011;10800;53.096;18.328;2022-07-24T20:19:18;17.57;;;9.17;;
21281;SDS011;10800;53.096;18.328;2022-07-24T20:24:23;14.53;;;9.07;;
21281;SDS011;10800;53.096;18.328;2022-07-24T20:29:28;12.90;;;9.50;;
21281;SDS011;10800;53.096;18.328;2022-07-24T20:34:34;14.37;;;9.77;;
21281;SDS011;10800;53.096;18.328;2022-07-24T20:39:40;28.60;;;16.37;;
21281;SDS011;10800;53.096;18.328;2022-07-24T20:44:46;36.33;;;17.47;;
21281;SDS011;10800;53.096;18.328;2022-07-24T20:49:51;31.17;;;15.20;;
21281;SDS011;10800;53.096;18.328;2022-07-24T20:54:57;21.77;;;11.93;;
21281;SDS011;10800;53.096;18.328;2022-07-24T21:00:04;16.53;;;10.20;;
21281;SDS011;10800;53.096;18.328;2022-07-24T21:05:12;17.23;;;10.17;;
21281;SDS011;10800;53.096;18.328;2022-07-24T21:10:17;13.90;;;8.63;;
21281;SDS011;10800;53.096;18.328;2022-07-24T21:15:23;15.13;;;8.33;;
21281;SDS011;10800;53.096;18.328;2022-07-24T21:20:28;26.63;;;12.47;;
21281;SDS011;10800;53.096;18.328;2022-07-24T21:25:35;50.97;;;20.17;;
21281;SDS011;10800;53.096;18.328;2022-07-24T21:30:41;34.50;;;16.27;;
21281;SDS011;10800;53.096;18.328;2022-07-24T21:35:46;24.90;;;13.60;;
21281;SDS011;10800;53.096;18.328;2022-07-24T21:40:58;20.03;;;10.43;;
21281;SDS011;10800;53.096;18.328;2022-07-24T21:45:59;42.87;;;18.33;;
21281;SDS011;10800;53.096;18.328;2022-07-24T21:51:05;21.73;;;11.70;;
21281;SDS011;10800;53.096;18.328;2022-07-24T21:56:12;21.43;;;10.93;;
21281;SDS011;10800;53.096;18.328;2022-07-24T22:01:17;22.87;;;11.13;;
21281;SDS011;10800;53.096;18.328;2022-07-24T22:06:24;13.37;;;9.00;;
21281;SDS011;10800;53.096;18.328;2022-07-24T22:11:30;20.27;;;10.37;;
21281;SDS011;10800;53.096;18.328;2022-07-24T22:16:35;16.57;;;9.47;;
21281;SDS011;10800;53.096;18.328;2022-07-24T22:21:41;15.93;;;9.27;;
21281;SDS011;10800;53.096;18.328;2022-07-24T22:26:46;13.07;;;8.30;;
21281;SDS011;10800;53.096;18.328;2022-07-24T22:31:52;17.30;;;8.90;;
21281;SDS011;10800;53.096;18.328;2022-07-24T22:36:58;17.90;;;9.17;;
21281;SDS011;10800;53.096;18.328;2022-07-24T22:42:05;15.50;;;8.87;;
21281;SDS011;10800;53.096;18.328;2022-07-24T22:47:11;16.20;;;9.57;;
21281;SDS011;10800;53.096;18.328;2022-07-24T22:52:21;20.67;;;9.53;;
21281;SDS011;10800;53.096;18.328;2022-07-24T22:57:28;20.63;;;9.90;;
21281;SDS011;10800;53.096;18.328;2022-07-24T23:02:35;21.13;;;10.03;;
21281;SDS011;10800;53.096;18.328;2022-07-24T23:07:40;13.47;;;8.57;;
21281;SDS011;10800;53.096;18.328;2022-07-24T23:12:46;18.63;;;9.70;;
21281;SDS011;10800;53.096;18.328;2022-07-24T23:17:51;22.23;;;10.00;;
21281;SDS011;10800;53.096;18.328;2022-07-24T23:22:57;22.67;;;9.47;;
21281;SDS011;10800;53.096;18.328;2022-07-24T23:28:02;16.70;;;8.57;;
21281;SDS011;10800;53.096;18.328;2022-07-24T23:33:08;19.27;;;9.90;;
21281;SDS011;10800;53.096;18.328;2022-07-24T23:38:13;14.97;;;8.87;;
21281;SDS011;10800;53.096;18.328;2022-07-24T23:43:19;17.93;;;9.13;;
21281;SDS011;10800;53.096;18.328;2022-07-24T23:48:24;13.50;;;8.63;;
21281;SDS011;10800;53.096;18.328;2022-07-24T23:53:30;13.50;;;7.93;;
21281;SDS011;10800;53.096;18.328;2022-07-24T23:58:36;14.63;;;8.63;;
